createdAt,value
2022-08-25T00:02:00.072Z,33.25
2022-08-25T00:04:31.960Z,33.47
2022-08-25T00:07:03.282Z,34.15
2022-08-25T00:09:31.927Z,33.98
2022-08-25T00:11:59.185Z,33.72
2022-08-25T00:14:30.783Z,34.25
2022-08-25T00:16:57.589Z,33.83
2022-08-25T00:19:28.425Z,34.00
2022-08-25T00:21:55.955Z,34.03
2022-08-25T00:24:23.407Z,34.52
2022-08-25T00:26:54.459Z,34.24
2022-08-25T00:29:22.793Z,34.49
2022-08-25T00:31:49.643Z,34.71
2022-08-25T00:34:21.504Z,34.33
2022-08-25T00:36:51.876Z,34.90
2022-08-25T00:39:21.109Z,34.33
2022-08-25T00:41:49.735Z,34.64
2022-08-25T00:44:20.143Z,34.60
2022-08-25T00:46:50.440Z,35.06
2022-08-25T00:49:27.252Z,35.12
2022-08-25T00:52:14.861Z,35.02
2022-08-25T00:54:53.077Z,35.25
2022-08-25T00:57:27.182Z,35.37
2022-08-25T01:00:07.423Z,35.31
2022-08-25T01:02:34.168Z,35.60
2022-08-25T01:05:00.891Z,35.76
2022-08-25T01:07:27.775Z,36.26
2022-08-25T01:09:55.620Z,35.85
2022-08-25T01:12:22.555Z,36.21
2022-08-25T01:14:50.166Z,35.80
2022-08-25T01:17:17.116Z,35.40
2022-08-25T01:19:44.159Z,35.75
2022-08-25T01:22:12.032Z,35.81
2022-08-25T01:24:53.313Z,35.90
2022-08-25T01:27:20.055Z,35.88
2022-08-25T01:29:46.757Z,35.82
2022-08-25T01:32:14.155Z,36.50
2022-08-25T01:34:43.798Z,36.31
2022-08-25T01:37:13.639Z,36.60
2022-08-25T01:39:42.193Z,36.76
2022-08-25T01:42:46.574Z,37.07
2022-08-25T01:45:14.172Z,37.61
2022-08-25T01:47:40.923Z,37.65
2022-08-25T01:50:08.028Z,37.97
2022-08-25T01:53:00.516Z,38.03
2022-08-25T01:55:27.652Z,38.23
2022-08-25T01:57:54.960Z,38.70
2022-08-25T02:00:23.303Z,38.37
2022-08-25T02:02:54.002Z,38.35
2022-08-25T02:05:23.824Z,38.75
2022-08-25T02:07:50.770Z,38.39
2022-08-25T02:10:17.633Z,38.61
2022-08-25T02:12:44.398Z,38.53
2022-08-25T02:15:11.165Z,38.18
2022-08-25T02:17:37.933Z,38.84
2022-08-25T02:20:09.031Z,39.14
2022-08-25T02:22:35.741Z,38.71
2022-08-25T02:25:02.793Z,38.63
2022-08-25T02:27:29.531Z,39.12
2022-08-25T02:29:56.250Z,39.18
2022-08-25T02:32:22.983Z,39.35
2022-08-25T02:34:49.826Z,39.64
2022-08-25T02:37:16.919Z,39.44
2022-08-25T02:39:43.899Z,39.52
2022-08-25T02:42:10.607Z,39.58
2022-08-25T02:44:37.337Z,39.97
2022-08-25T02:47:04.272Z,39.85
2022-08-25T02:49:32.054Z,40.49
2022-08-25T02:52:00.512Z,40.83
2022-08-25T02:54:28.632Z,40.74
2022-08-25T02:56:55.386Z,40.74
2022-08-25T02:59:22.078Z,40.97
2022-08-25T03:01:48.811Z,41.33
2022-08-25T03:04:17.224Z,41.63
2022-08-25T03:06:44.437Z,41.93
2022-08-25T03:09:11.688Z,41.42
2022-08-25T03:11:38.736Z,41.68
2022-08-25T03:14:07.052Z,41.61
2022-08-25T03:16:34.282Z,41.72
2022-08-25T03:19:01.579Z,41.47
2022-08-25T03:21:30.227Z,41.46
2022-08-25T03:23:57.263Z,41.72
2022-08-25T03:26:42.696Z,41.69
2022-08-25T03:29:10.494Z,41.62
2022-08-25T03:31:38.926Z,41.66
2022-08-25T03:34:05.899Z,41.86
2022-08-25T03:36:32.596Z,41.70
2022-08-25T03:39:00.450Z,41.84
2022-08-25T03:41:32.547Z,41.39
2022-08-25T03:44:00.303Z,41.38
2022-08-25T03:46:31.024Z,41.13
2022-08-25T03:48:58.326Z,40.65
2022-08-25T03:51:33.819Z,41.16
2022-08-25T03:54:01.612Z,41.41
2022-08-25T03:56:28.938Z,42.07
2022-08-25T03:58:56.085Z,42.05
2022-08-25T04:01:23.775Z,42.26
2022-08-25T04:03:50.691Z,42.01
2022-08-25T04:06:19.792Z,41.92
2022-08-25T04:08:46.603Z,41.90
2022-08-25T04:11:17.576Z,41.41
2022-08-25T04:13:46.538Z,41.45
2022-08-25T04:16:15.444Z,41.26
2022-08-25T04:18:42.951Z,41.45
2022-08-25T04:21:11.917Z,41.88
2022-08-25T04:23:40.759Z,41.69
2022-08-25T04:26:16.228Z,41.59
2022-08-25T04:28:42.941Z,41.13
2022-08-25T04:31:12.130Z,41.53
2022-08-25T04:33:39.092Z,41.81
2022-08-25T04:36:11.396Z,41.85
2022-08-25T04:38:42.899Z,42.26
2022-08-25T04:41:11.697Z,43.22
2022-08-25T04:43:39.914Z,43.78
2022-08-25T04:46:11.167Z,43.89
2022-08-25T04:48:39.856Z,44.48
2022-08-25T04:51:08.352Z,44.30
2022-08-25T04:53:35.344Z,43.81
2022-08-25T04:56:03.935Z,44.18
2022-08-25T04:58:31.279Z,44.11
2022-08-25T05:01:04.867Z,44.40
2022-08-25T05:03:31.700Z,44.45
2022-08-25T05:05:58.591Z,44.16
2022-08-25T05:08:25.610Z,44.37
2022-08-25T05:10:54.527Z,44.32
2022-08-25T05:13:26.095Z,44.56
2022-08-25T05:15:56.229Z,44.90
2022-08-25T05:18:27.739Z,44.89
2022-08-25T05:20:56.005Z,45.15
2022-08-25T05:23:24.538Z,45.02
2022-08-25T05:25:52.877Z,45.37
2022-08-25T05:28:20.857Z,45.06
2022-08-25T05:30:51.346Z,45.24
2022-08-25T05:33:18.451Z,45.23
2022-08-25T05:35:45.284Z,44.44
2022-08-25T05:38:15.323Z,43.93
2022-08-25T05:40:42.528Z,43.58
2022-08-25T05:43:10.289Z,43.06
2022-08-25T05:45:37.189Z,42.51
2022-08-25T05:48:04.102Z,41.78
2022-08-25T05:50:30.910Z,41.74
2022-08-25T05:52:57.696Z,41.08
2022-08-25T05:55:24.653Z,40.33
2022-08-25T05:57:51.398Z,39.95
2022-08-25T06:00:18.722Z,39.43
2022-08-25T06:02:46.678Z,39.04
2022-08-25T06:05:23.371Z,38.14
2022-08-25T06:07:52.236Z,37.62
2022-08-25T06:10:20.184Z,37.10
2022-08-25T06:12:48.288Z,36.53
2022-08-25T06:15:18.932Z,35.49
2022-08-25T06:17:45.897Z,34.98
2022-08-25T06:20:20.363Z,34.14
2022-08-25T06:22:52.310Z,33.76
2022-08-25T06:25:21.940Z,33.80
2022-08-25T06:27:49.340Z,33.79
2022-08-25T06:30:24.531Z,33.36
2022-08-25T06:32:55.774Z,32.85
2022-08-25T06:35:22.740Z,32.09
2022-08-25T06:37:49.462Z,30.82
2022-08-25T06:40:16.960Z,30.23
2022-08-25T06:42:48.882Z,29.56
2022-08-25T06:45:15.887Z,29.09
2022-08-25T06:47:42.849Z,28.74
2022-08-25T06:50:12.635Z,28.91
2022-08-25T06:52:39.387Z,28.25
2022-08-25T06:55:06.748Z,27.26
2022-08-25T06:57:35.833Z,27.40
2022-08-25T07:00:08.016Z,26.95
2022-08-25T07:02:35.412Z,27.36
2022-08-25T07:05:02.865Z,27.58
2022-08-25T07:07:43.228Z,27.58
2022-08-25T07:10:12.773Z,27.77
2022-08-25T07:12:40.329Z,28.03
2022-08-25T07:15:19.718Z,27.85
2022-08-25T07:17:47.409Z,27.98
2022-08-25T07:20:16.551Z,27.44
2022-08-25T07:22:43.518Z,27.98
2022-08-25T07:25:11.866Z,28.00
2022-08-25T07:27:39.612Z,27.34
2022-08-25T07:30:11.327Z,27.37
2022-08-25T07:32:42.255Z,27.12
2022-08-25T07:35:20.494Z,27.17
2022-08-25T07:37:58.730Z,26.87
2022-08-25T07:40:31.942Z,26.12
2022-08-25T07:43:03.558Z,25.10
2022-08-25T07:45:34.249Z,25.04
2022-08-25T07:48:04.858Z,24.72
2022-08-25T07:50:32.561Z,24.16
2022-08-25T07:53:00.284Z,23.56
2022-08-25T07:55:30.129Z,23.04
2022-08-25T07:57:57.416Z,21.87
2022-08-25T08:00:27.637Z,22.07
2022-08-25T08:02:54.979Z,21.60
2022-08-25T08:05:23.826Z,21.81
2022-08-25T08:07:52.328Z,20.76
2022-08-25T08:13:07.719Z,19.99
2022-08-25T08:15:35.490Z,19.85
2022-08-25T08:18:03.095Z,20.09
2022-08-25T08:20:43.171Z,20.33
2022-08-25T08:23:11.437Z,20.41
2022-08-25T08:25:38.248Z,20.05
2022-08-25T08:28:07.151Z,19.89
2022-08-25T08:30:36.400Z,19.98
2022-08-25T08:33:12.886Z,19.87
2022-08-25T08:35:41.520Z,19.91
2022-08-25T08:38:14.481Z,20.50
2022-08-25T08:41:22.993Z,20.57
2022-08-25T08:43:56.352Z,20.15
2022-08-25T08:46:26.067Z,19.75
2022-08-25T08:49:02.587Z,19.32
2022-08-25T08:51:35.972Z,18.87
2022-08-25T08:54:25.090Z,18.49
2022-08-25T08:57:06.181Z,18.54
2022-08-25T08:59:44.525Z,17.92
2022-08-25T09:02:39.520Z,17.87
2022-08-25T09:05:15.208Z,17.41
2022-08-25T09:07:48.322Z,17.69
2022-08-25T09:10:17.447Z,17.46
2022-08-25T09:12:56.823Z,17.34
2022-08-25T09:16:20.610Z,16.79
2022-08-25T09:19:28.778Z,15.55
2022-08-25T09:22:33.710Z,15.72
2022-08-25T09:25:29.535Z,15.78
2022-08-25T09:28:22.005Z,15.72
2022-08-25T09:30:58.353Z,15.72
2022-08-25T09:33:27.461Z,15.71
2022-08-25T09:35:57.282Z,14.90
2022-08-25T09:38:26.429Z,15.33
2022-08-25T09:41:00.778Z,14.84
2022-08-25T09:43:37.059Z,14.70
2022-08-25T09:46:10.587Z,14.28
2022-08-25T09:48:56.557Z,14.34
2022-08-25T09:51:28.342Z,14.83
2022-08-25T09:53:55.983Z,14.89
2022-08-25T09:56:26.630Z,14.56
2022-08-25T09:58:55.129Z,14.21
2022-08-25T10:01:23.828Z,13.18
2022-08-25T10:04:05.905Z,13.05
2022-08-25T10:06:47.243Z,12.30
2022-08-25T10:09:41.880Z,11.56
2022-08-25T10:12:42.506Z,12.65
2022-08-25T10:15:29.570Z,12.86
2022-08-25T10:18:25.715Z,12.85
2022-08-25T10:21:07.545Z,12.98
2022-08-25T10:23:41.986Z,13.35
2022-08-25T10:26:19.916Z,12.48
2022-08-25T10:28:46.567Z,12.53
2022-08-25T10:31:26.052Z,12.48
2022-08-25T10:34:02.368Z,11.65
2022-08-25T10:36:46.989Z,11.78
2022-08-25T10:39:43.763Z,11.81
2022-08-25T10:42:32.405Z,11.37
2022-08-25T10:45:24.362Z,10.89
2022-08-25T10:48:12.972Z,9.92
2022-08-25T10:50:49.029Z,9.56
2022-08-25T10:53:23.608Z,10.38
2022-08-25T10:56:03.184Z,10.01
2022-08-25T10:58:36.656Z,11.69
2022-08-25T11:01:34.694Z,12.39
2022-08-25T11:04:13.852Z,12.11
2022-08-25T11:07:00.609Z,12.76
2022-08-25T11:09:36.590Z,11.75
2022-08-25T11:12:27.114Z,11.18
2022-08-25T11:15:00.065Z,10.91
2022-08-25T11:17:43.880Z,10.41
2022-08-25T11:20:26.547Z,10.58
2022-08-25T11:23:12.221Z,11.60
2022-08-25T11:25:49.333Z,12.17
2022-08-25T11:28:32.817Z,12.28
2022-08-25T11:31:02.071Z,12.07
2022-08-25T11:33:30.675Z,13.36
2022-08-25T11:36:03.407Z,13.61
2022-08-25T11:38:48.187Z,13.20
2022-08-25T11:41:22.116Z,13.23
2022-08-25T11:44:03.771Z,12.60
2022-08-25T11:46:43.230Z,11.35
2022-08-25T11:49:26.172Z,10.98
2022-08-25T11:51:52.994Z,13.83
2022-08-25T11:54:36.756Z,13.54
2022-08-25T11:57:07.842Z,13.73
2022-08-25T11:59:49.679Z,13.09
2022-08-25T12:02:44.018Z,12.13
2022-08-25T12:05:12.866Z,11.47
2022-08-25T12:08:21.611Z,10.38
2022-08-25T12:10:59.231Z,10.80
2022-08-25T12:13:45.102Z,11.15
2022-08-25T12:16:36.827Z,13.10
2022-08-25T12:19:34.474Z,14.85
2022-08-25T12:22:01.201Z,16.62
2022-08-25T12:24:47.523Z,16.99
2022-08-25T12:27:33.959Z,19.28
2022-08-25T12:30:05.094Z,20.50
2022-08-25T12:32:59.542Z,20.59
2022-08-25T12:35:40.979Z,19.98
2022-08-25T12:38:42.586Z,19.68
2022-08-25T12:41:14.756Z,20.19
2022-08-25T12:43:44.891Z,20.06
2022-08-25T12:46:25.748Z,20.31
2022-08-25T12:48:58.575Z,21.29
2022-08-25T12:51:38.999Z,21.67
2022-08-25T12:54:25.390Z,21.75
2022-08-25T12:57:05.111Z,21.46
2022-08-25T12:59:45.805Z,21.46
2022-08-25T13:02:36.874Z,21.23
2022-08-25T13:05:28.722Z,21.66
2022-08-25T13:08:19.316Z,21.97
2022-08-25T13:10:55.919Z,21.54
2022-08-25T13:13:41.474Z,21.51
2022-08-25T13:16:16.320Z,21.15
2022-08-25T13:18:45.044Z,21.42
2022-08-25T13:21:22.670Z,21.28
2022-08-25T13:23:53.981Z,21.68
2022-08-25T13:26:31.726Z,21.71
2022-08-25T13:29:22.306Z,21.80
2022-08-25T13:31:58.875Z,22.35
2022-08-25T13:34:34.469Z,22.07
2022-08-25T13:37:25.118Z,22.01
2022-08-25T13:40:07.994Z,22.05
2022-08-25T13:42:42.528Z,22.27
2022-08-25T13:45:17.921Z,22.40
2022-08-25T13:47:46.220Z,22.20
2022-08-25T13:50:26.510Z,22.27
2022-08-25T13:52:56.748Z,21.82
2022-08-25T13:55:28.635Z,21.94
2022-08-25T13:57:58.273Z,22.18
2022-08-25T14:00:33.321Z,21.87
2022-08-25T14:03:08.664Z,21.61
2022-08-25T14:05:42.578Z,21.49
2022-08-25T14:08:31.483Z,21.67
2022-08-25T14:11:14.829Z,21.65
2022-08-25T14:13:45.511Z,21.92
2022-08-25T14:16:15.268Z,21.92
2022-08-25T14:18:52.075Z,21.75
2022-08-25T14:21:22.905Z,22.25
2022-08-25T14:23:49.634Z,22.06
2022-08-25T14:26:16.598Z,21.97
2022-08-25T14:28:43.283Z,21.92
2022-08-25T14:31:14.077Z,21.90
2022-08-25T14:33:49.998Z,22.18
2022-08-25T14:36:18.705Z,22.39
2022-08-25T14:38:47.837Z,21.79
2022-08-25T14:41:23.827Z,21.53
2022-08-25T14:43:50.712Z,21.65
2022-08-25T14:46:24.423Z,21.17
2022-08-25T14:48:56.706Z,21.43
2022-08-25T14:51:25.347Z,21.98
2022-08-25T14:53:57.419Z,21.75
2022-08-25T14:56:24.224Z,21.79
2022-08-25T14:58:54.652Z,22.06
2022-08-25T15:01:29.618Z,21.91
2022-08-25T15:04:18.960Z,22.16
2022-08-25T15:06:46.856Z,22.41
2022-08-25T15:09:17.146Z,21.72
2022-08-25T15:11:47.162Z,21.61
2022-08-25T15:14:28.881Z,21.57
2022-08-25T15:17:01.637Z,21.77
2022-08-25T15:19:28.875Z,21.52
2022-08-25T15:21:58.125Z,21.55
2022-08-25T15:24:27.410Z,22.00
2022-08-25T15:27:03.938Z,21.73
2022-08-25T15:29:34.685Z,21.51
2022-08-25T15:32:04.937Z,21.36
2022-08-25T15:34:32.078Z,21.34
2022-08-25T15:37:01.812Z,21.42
2022-08-25T15:39:29.499Z,21.48
2022-08-25T15:41:57.167Z,21.71
2022-08-25T15:44:29.185Z,21.74
2022-08-25T15:46:56.499Z,22.02
2022-08-25T15:49:24.114Z,22.03
2022-08-25T15:51:55.206Z,22.35
2022-08-25T15:54:26.634Z,22.36
2022-08-25T15:56:55.272Z,21.96
2022-08-25T15:59:22.640Z,21.99
2022-08-25T16:01:54.859Z,21.89
2022-08-25T16:04:24.715Z,22.27
2022-08-25T16:06:51.969Z,22.17
2022-08-25T16:09:19.216Z,22.29
2022-08-25T16:11:57.155Z,22.21
2022-08-25T16:14:25.253Z,22.68
2022-08-25T16:16:58.413Z,23.13
2022-08-25T16:19:26.954Z,23.37
2022-08-25T16:21:53.646Z,23.02
2022-08-25T16:24:20.478Z,23.47
2022-08-25T16:26:48.044Z,23.99
2022-08-25T16:29:15.848Z,23.57
2022-08-25T16:31:44.219Z,23.62
2022-08-25T16:34:12.016Z,23.38
2022-08-25T16:36:39.999Z,23.19
2022-08-25T16:39:10.039Z,23.03
2022-08-25T16:41:36.953Z,23.13
2022-08-25T16:44:07.756Z,23.17
2022-08-25T16:46:38.846Z,23.34
2022-08-25T16:49:08.585Z,23.53
2022-08-25T16:51:37.072Z,23.16
2022-08-25T16:54:23.541Z,22.80
2022-08-25T16:56:54.828Z,23.21
2022-08-25T16:59:23.345Z,23.26
2022-08-25T17:01:51.192Z,23.08
2022-08-25T17:04:18.013Z,22.87
2022-08-25T17:06:51.699Z,22.92
2022-08-25T17:09:22.783Z,23.35
2022-08-25T17:11:52.640Z,23.39
2022-08-25T17:14:21.476Z,23.50
2022-08-25T17:16:48.638Z,23.79
2022-08-25T17:19:18.561Z,23.71
2022-08-25T17:21:50.004Z,24.18
2022-08-25T17:24:17.106Z,24.22
2022-08-25T17:26:46.371Z,24.71
2022-08-25T17:29:13.303Z,24.57
2022-08-25T17:31:40.588Z,24.65
2022-08-25T17:34:12.906Z,25.56
2022-08-25T17:36:43.908Z,25.05
2022-08-25T17:39:12.796Z,25.68
2022-08-25T17:41:42.951Z,25.68
2022-08-25T17:44:09.799Z,26.20
2022-08-25T17:46:38.463Z,26.40
2022-08-25T17:49:08.833Z,26.56
2022-08-25T17:51:35.574Z,26.39
2022-08-25T17:54:02.511Z,26.40
2022-08-25T17:56:29.940Z,26.76
2022-08-25T17:58:57.231Z,26.91
2022-08-25T18:01:31.224Z,26.79
2022-08-25T18:03:59.194Z,27.13
2022-08-25T18:06:29.488Z,27.23
2022-08-25T18:08:59.852Z,27.31
2022-08-25T18:11:28.693Z,27.65
2022-08-25T18:13:55.773Z,27.85
2022-08-25T18:16:24.567Z,27.63
2022-08-25T18:18:53.558Z,28.00
2022-08-25T18:21:22.431Z,28.46
2022-08-25T18:23:49.800Z,28.59
2022-08-25T18:26:19.170Z,28.54
2022-08-25T18:28:51.331Z,29.21
2022-08-25T18:31:19.883Z,29.62
2022-08-25T18:33:47.144Z,29.46
2022-08-25T18:36:20.305Z,28.96
2022-08-25T18:39:06.547Z,29.50
2022-08-25T18:41:38.548Z,29.10
2022-08-25T18:44:07.156Z,29.58
2022-08-25T18:46:33.922Z,28.95
2022-08-25T18:49:01.173Z,29.62
2022-08-25T18:51:27.937Z,30.10
2022-08-25T18:54:01.052Z,29.75
2022-08-25T18:56:28.805Z,29.76
2022-08-25T18:58:56.082Z,30.53
2022-08-25T19:01:23.131Z,30.21
2022-08-25T19:03:50.438Z,29.89
2022-08-25T19:06:19.203Z,30.36
2022-08-25T19:08:46.605Z,30.79
2022-08-25T19:11:13.443Z,30.84
2022-08-25T19:13:40.493Z,30.96
2022-08-25T19:16:29.678Z,30.72
2022-08-25T19:18:56.749Z,31.15
2022-08-25T19:21:25.113Z,31.30
2022-08-25T19:23:53.392Z,31.57
2022-08-25T19:26:21.375Z,30.80
2022-08-25T19:28:49.434Z,31.03
2022-08-25T19:31:24.644Z,31.26
2022-08-25T19:33:53.785Z,31.59
2022-08-25T19:36:24.767Z,31.59
2022-08-25T19:38:58.220Z,31.30
2022-08-25T19:41:26.105Z,31.50
2022-08-25T19:43:56.069Z,31.33
2022-08-25T19:46:33.320Z,31.55
2022-08-25T19:49:09.000Z,31.40
2022-08-25T19:51:44.282Z,32.07
2022-08-25T19:54:16.914Z,31.72
2022-08-25T19:56:54.464Z,32.49
2022-08-25T19:59:25.298Z,32.21
2022-08-25T20:01:53.026Z,32.62
2022-08-25T20:04:20.363Z,32.46
2022-08-25T20:06:48.286Z,32.92
2022-08-25T20:09:35.708Z,33.21
2022-08-25T20:12:03.254Z,32.66
2022-08-25T20:14:30.043Z,33.24
2022-08-25T20:16:56.791Z,33.11
2022-08-25T20:19:23.588Z,32.67
2022-08-25T20:21:50.279Z,32.67
2022-08-25T20:24:35.524Z,32.53
2022-08-25T20:27:03.644Z,32.65
2022-08-25T20:29:31.012Z,33.33
2022-08-25T20:31:59.627Z,33.09
2022-08-25T20:34:28.629Z,33.32
2022-08-25T20:36:55.629Z,33.44
2022-08-25T20:39:22.998Z,34.00
2022-08-25T20:41:49.694Z,34.16
2022-08-25T20:44:17.579Z,34.47
2022-08-25T20:46:45.396Z,34.42
2022-08-25T20:49:13.574Z,35.06
2022-08-25T20:51:40.674Z,35.42
2022-08-25T20:54:11.393Z,35.42
2022-08-25T20:56:38.065Z,35.47
2022-08-25T20:59:04.815Z,35.23
2022-08-25T21:01:42.195Z,35.53
2022-08-25T21:04:12.886Z,35.45
2022-08-25T21:06:42.016Z,35.79
2022-08-25T21:09:15.826Z,35.61
2022-08-25T21:11:45.048Z,35.51
2022-08-25T21:14:13.617Z,35.80
2022-08-25T21:16:46.171Z,36.02
2022-08-25T21:19:17.443Z,36.15
2022-08-25T21:21:59.596Z,36.16
2022-08-25T21:24:28.264Z,35.93
2022-08-25T21:26:56.913Z,35.85
2022-08-25T21:29:25.910Z,35.75
2022-08-25T21:31:58.536Z,35.69
2022-08-25T21:34:26.072Z,35.77
2022-08-25T21:36:59.264Z,36.25
2022-08-25T21:39:28.090Z,36.39
2022-08-25T21:41:56.520Z,36.30
2022-08-25T21:44:23.493Z,36.35
2022-08-25T21:46:54.161Z,36.26
2022-08-25T21:49:22.581Z,36.51
2022-08-25T21:51:59.180Z,36.69
2022-08-25T21:54:26.886Z,37.02
2022-08-25T21:57:01.603Z,36.92
2022-08-25T21:59:37.131Z,37.06
2022-08-25T22:02:07.947Z,37.13
2022-08-25T22:04:38.820Z,37.50
2022-08-25T22:07:07.724Z,37.20
2022-08-25T22:09:35.528Z,37.29
2022-08-25T22:12:03.468Z,37.50
2022-08-25T22:14:30.294Z,37.35
2022-08-25T22:16:57.108Z,37.41
2022-08-25T22:19:24.846Z,37.65
2022-08-25T22:21:52.770Z,37.71
2022-08-25T22:24:19.598Z,37.88
2022-08-25T22:26:47.631Z,37.69
2022-08-25T22:29:24.653Z,38.20
2022-08-25T22:31:52.810Z,38.61
2022-08-25T22:34:20.135Z,38.52
2022-08-25T22:37:00.051Z,38.73
2022-08-25T22:39:27.495Z,38.62
2022-08-25T22:41:54.275Z,38.54
2022-08-25T22:44:23.062Z,38.58
2022-08-25T22:46:49.841Z,39.00
2022-08-25T22:49:17.147Z,39.14
2022-08-25T22:51:44.351Z,39.45
2022-08-25T22:54:15.023Z,39.32
2022-08-25T22:56:42.511Z,39.41
2022-08-25T22:59:13.152Z,39.65
2022-08-25T23:01:42.789Z,40.07
2022-08-25T23:04:10.824Z,39.75
2022-08-25T23:06:38.291Z,40.36
2022-08-25T23:09:07.768Z,40.09
2022-08-25T23:11:35.817Z,40.06
2022-08-25T23:14:09.400Z,39.77
2022-08-25T23:16:37.489Z,39.84
2022-08-25T23:19:04.553Z,39.82
2022-08-25T23:21:51.444Z,39.88
2022-08-25T23:24:29.502Z,39.77
2022-08-25T23:27:02.287Z,39.76
2022-08-25T23:29:34.310Z,39.79
2022-08-25T23:32:01.142Z,39.95
2022-08-25T23:34:28.597Z,40.03
2022-08-25T23:36:55.982Z,40.48
2022-08-25T23:39:23.291Z,41.01
2022-08-25T23:41:51.501Z,41.12
2022-08-25T23:44:20.144Z,41.06
2022-08-25T23:46:48.191Z,41.03
2022-08-25T23:49:18.217Z,40.59
2022-08-25T23:51:47.928Z,40.80
2022-08-25T23:54:17.114Z,41.15
2022-08-25T23:56:51.659Z,41.48
2022-08-25T23:59:24.050Z,41.24
